Time;durP1;ratioP1;P1;durP2;ratioP2;P2;SDS_P1;SDS_P2;PMS_P1;PMS_P2;Temp;Humidity;BMP_temperature;BMP_pressure;BME280_temperature;BME280_humidity;BME280_pressure;Samples;Min_cycle;Max_cycle;Signal;HPM_P1;HPM_P2
2021/12/16 00:07:14;;;;;;;35.83;32.80;;;6.30;95.00;;;;;;5033479;28;20220;-73
2021/12/16 00:09:50;;;;;;;33.40;30.60;;;6.30;95.20;;;;;;5033212;28;20284;-73
2021/12/16 00:31:58;;;;;;;32.28;29.50;;;6.20;94.80;;;;;;5033042;28;20203;-73
2021/12/16 00:34:28;;;;;;;34.35;30.50;;;6.20;94.40;;;;;;5032865;28;20224;-73
2021/12/16 00:36:56;;;;;;;33.55;30.80;;;6.30;94.30;;;;;;5033025;28;20202;-73
2021/12/16 00:39:27;;;;;;;1774.72;232.25;;;6.20;94.80;;;;;;5032954;28;20197;-73
2021/12/16 00:42:00;;;;;;;34.00;31.05;;;6.30;95.50;;;;;;5032832;28;20566;-73
2021/12/16 00:47:31;;;;;;;32.13;29.42;;;6.40;94.30;;;;;;5011028;28;20631;-73
2021/12/16 00:50:06;;;;;;;32.50;29.70;;;6.30;92.20;;;;;;5028270;28;20655;-73
2021/12/16 00:55:30;;;;;;;32.72;30.08;;;6.20;95.40;;;;;;5032659;28;20627;-73
2021/12/16 00:57:57;;;;;;;32.25;29.35;;;6.20;93.70;;;;;;5032736;28;20197;-73
2021/12/16 01:00:28;;;;;;;33.25;30.40;;;6.30;95.20;;;;;;5032949;28;20213;-73
2021/12/16 01:03:07;;;;;;;32.00;29.50;;;6.30;93.90;;;;;;5032529;28;20211;-73
2021/12/16 01:33:48;;;;;;;30.73;28.33;;;6.30;94.10;;;;;;5036342;28;22010;-73
2021/12/16 01:36:31;;;;;;;30.92;28.27;;;6.50;92.50;;;;;;5036324;28;20189;-73
2021/12/16 01:39:46;;;;;;;31.98;29.13;;;6.40;91.50;;;;;;5036242;28;20666;-73
2021/12/16 01:42:33;;;;;;;31.63;28.60;;;6.40;91.20;;;;;;5036092;28;20201;-73
2021/12/16 01:48:00;;;;;;;32.75;30.15;;;6.10;94.40;;;;;;5036293;28;20211;-73
2021/12/16 01:50:33;;;;;;;33.33;30.60;;;6.10;94.00;;;;;;5035953;28;20255;-73
2021/12/16 01:53:16;;;;;;;32.63;29.95;;;6.20;92.80;;;;;;5035762;28;20205;-73
2021/12/16 01:55:51;;;;;;;34.25;31.35;;;6.20;92.40;;;;;;5036563;28;20197;-73
2021/12/16 01:58:22;;;;;;;33.08;30.15;;;6.30;91.60;;;;;;5036378;28;20200;-73
2021/12/16 02:00:59;;;;;;;34.28;31.42;;;6.40;91.00;;;;;;5036344;28;20205;-72
2021/12/16 02:03:40;;;;;;;32.65;30.00;;;6.40;90.90;;;;;;5035572;28;20231;-73
2021/12/16 02:06:25;;;;;;;34.25;31.58;;;6.40;90.50;;;;;;5035735;28;20263;-73
2021/12/16 02:08:54;;;;;;;32.97;30.27;;;6.30;90.40;;;;;;5035809;28;20202;-73
2021/12/16 02:11:37;;;;;;;34.65;31.75;;;6.20;91.50;;;;;;5035638;28;20197;-73
2021/12/16 02:28:12;;;;;;;33.13;30.27;;;6.10;91.60;;;;;;5035683;28;20213;-73
2021/12/16 02:33:53;;;;;;;33.25;30.35;;;6.20;91.10;;;;;;5035110;28;20543;-73
2021/12/16 02:36:26;;;;;;;32.20;29.60;;;6.20;91.30;;;;;;5035360;28;20189;-73
2021/12/16 02:38:59;;;;;;;33.13;30.33;;;6.10;91.10;;;;;;5035259;28;20201;-73
2021/12/16 02:41:27;;;;;;;32.08;29.48;;;6.00;92.30;;;;;;5035211;28;20236;-72
2021/12/16 02:49:21;;;;;;;33.17;30.48;;;6.00;91.60;;;;;;5034703;28;20566;-73
2021/12/16 02:51:48;;;;;;;33.95;31.05;;;6.00;92.00;;;;;;5035081;28;20201;-73
2021/12/16 02:54:17;;;;;;;32.25;29.65;;;6.10;91.90;;;;;;5034722;28;20282;-73
2021/12/16 02:56:44;;;;;;;47.33;32.45;;;6.20;92.20;;;;;;5034996;28;20197;-73
2021/12/16 02:59:11;;;;;;;34.38;31.27;;;6.10;94.70;;;;;;5034820;28;20197;-73
2021/12/16 03:01:43;;;;;;;33.28;30.30;;;6.10;94.00;;;;;;5034686;28;20708;-73
2021/12/16 03:04:13;;;;;;;31.45;28.85;;;6.10;93.20;;;;;;5034407;28;20218;-73
2021/12/16 03:06:41;;;;;;;34.40;31.58;;;6.20;93.10;;;;;;5034616;28;20217;-73
2021/12/16 03:09:11;;;;;;;32.15;29.63;;;6.30;92.10;;;;;;5034615;28;20201;-73
2021/12/16 03:11:51;;;;;;;33.45;30.73;;;6.30;91.50;;;;;;5034534;28;20201;-73
2021/12/16 03:14:30;;;;;;;34.10;31.20;;;6.30;91.40;;;;;;5034290;28;20252;-73
2021/12/16 03:17:11;;;;;;;33.65;30.73;;;6.40;90.60;;;;;;5034633;28;20197;-73
2021/12/16 03:20:00;;;;;;;34.92;32.03;;;6.30;91.00;;;;;;5034470;28;20236;-73
2021/12/16 03:22:49;;;;;;;34.25;31.52;;;6.30;90.50;;;;;;5034337;28;20205;-73
2021/12/16 03:25:23;;;;;;;35.53;32.42;;;6.20;90.50;;;;;;5034204;28;20225;-73
2021/12/16 03:30:57;;;;;;;35.03;31.92;;;6.20;92.10;;;;;;5034272;28;20196;-73
2021/12/16 03:33:46;;;;;;;36.88;33.65;;;6.20;93.00;;;;;;5034197;28;20287;-73
2021/12/16 03:36:27;;;;;;;35.80;32.60;;;6.20;92.00;;;;;;5034206;28;20212;-73
2021/12/16 03:38:57;;;;;;;36.78;33.58;;;6.20;92.00;;;;;;5034052;28;20291;-73
2021/12/16 03:41:25;;;;;;;36.75;33.63;;;6.20;91.90;;;;;;5033986;28;20205;-73
2021/12/16 03:43:58;;;;;;;35.22;32.28;;;6.10;91.30;;;;;;5033309;28;20224;-73
2021/12/16 03:46:29;;;;;;;35.25;31.95;;;6.20;91.60;;;;;;5033534;28;20214;-73
2021/12/16 03:49:06;;;;;;;39.30;35.08;;;6.30;91.30;;;;;;5033796;28;20194;-73
2021/12/16 03:51:37;;;;;;;34.72;31.63;;;6.30;94.40;;;;;;5033823;28;20208;-73
2021/12/16 03:54:09;;;;;;;35.17;32.08;;;6.20;94.50;;;;;;5033499;28;20225;-73
2021/12/16 03:56:37;;;;;;;36.60;33.40;;;6.20;93.00;;;;;;5033867;28;20193;-73
2021/12/16 03:59:07;;;;;;;34.97;32.10;;;6.20;92.40;;;;;;5033670;28;20201;-73
2021/12/16 04:01:35;;;;;;;35.85;32.65;;;6.20;91.90;;;;;;5033723;28;20204;-73
2021/12/16 04:04:02;;;;;;;34.58;31.60;;;6.30;91.80;;;;;;5033411;28;20312;-73
2021/12/16 04:06:32;;;;;;;34.08;31.27;;;6.30;91.10;;;;;;5033585;28;20221;-73
2021/12/16 04:08:59;;;;;;;35.08;32.05;;;6.20;91.50;;;;;;5033528;28;20288;-73
2021/12/16 04:11:38;;;;;;;37.38;34.00;;;6.30;91.60;;;;;;5033421;28;20244;-73
2021/12/16 04:14:07;;;;;;;37.75;34.65;;;6.40;90.70;;;;;;5033127;28;20732;-73
2021/12/16 04:16:36;;;;;;;35.53;32.42;;;6.30;90.50;;;;;;5033374;28;20204;-73
2021/12/16 04:19:09;;;;;;;35.10;31.95;;;6.40;90.10;;;;;;5033311;28;20200;-73
2021/12/16 04:21:38;;;;;;;35.17;32.03;;;6.40;89.80;;;;;;5033337;28;20201;-73
2021/12/16 04:24:06;;;;;;;36.05;32.55;;;6.40;90.50;;;;;;5032875;28;20717;-73
2021/12/16 04:26:33;;;;;;;37.60;34.30;;;6.40;90.20;;;;;;5033227;28;20217;-73
2021/12/16 04:29:03;;;;;;;37.00;33.80;;;6.50;90.10;;;;;;5033099;28;20204;-73
2021/12/16 04:31:32;;;;;;;35.78;32.47;;;6.60;89.00;;;;;;5032983;28;20201;-73
2021/12/16 04:33:59;;;;;;;36.13;32.78;;;6.60;88.60;;;;;;5032790;28;20224;-73
2021/12/16 04:36:26;;;;;;;37.53;34.08;;;6.60;88.20;;;;;;5033178;28;20285;-73
2021/12/16 04:38:53;;;;;;;37.58;33.88;;;6.40;89.00;;;;;;5033005;28;20200;-73
2021/12/16 04:41:20;;;;;;;38.35;35.05;;;6.40;91.10;;;;;;5033066;28;20217;-73
2021/12/16 04:43:50;;;;;;;38.85;35.35;;;6.30;91.00;;;;;;5032127;28;20220;-73
2021/12/16 04:46:19;;;;;;;39.50;35.92;;;6.30;91.60;;;;;;5032899;28;20193;-73
2021/12/16 04:48:50;;;;;;;38.05;34.67;;;6.40;90.90;;;;;;5032641;28;20678;-73
2021/12/16 04:51:19;;;;;;;37.78;34.30;;;6.30;90.70;;;;;;5032825;28;20203;-73
2021/12/16 04:53:46;;;;;;;38.65;35.00;;;6.30;90.50;;;;;;5032379;28;20221;-73
2021/12/16 04:56:15;;;;;;;40.08;36.38;;;6.40;90.20;;;;;;5032601;28;20658;-73
2021/12/16 04:58:44;;;;;;;38.00;34.30;;;6.40;90.30;;;;;;5031978;28;20558;-73
2021/12/16 05:01:11;;;;;;;40.03;36.13;;;6.30;89.90;;;;;;5032626;28;20193;-73
2021/12/16 05:03:38;;;;;;;42.72;38.45;;;6.30;90.90;;;;;;5032191;28;20710;-73
2021/12/16 05:06:10;;;;;;;42.03;37.85;;;6.30;90.10;;;;;;5032517;28;20208;-73
2021/12/16 05:08:39;;;;;;;44.00;39.42;;;6.40;89.70;;;;;;5032466;28;20200;-73
2021/12/16 05:11:08;;;;;;;42.05;38.05;;;6.30;90.20;;;;;;5032494;28;20202;-73
2021/12/16 05:13:36;;;;;;;40.83;36.83;;;6.30;90.10;;;;;;5032206;28;20219;-73
2021/12/16 05:16:05;;;;;;;43.53;39.47;;;6.40;90.00;;;;;;5032592;28;20224;-73
2021/12/16 05:18:35;;;;;;;42.35;38.05;;;6.40;89.90;;;;;;5032354;28;20674;-73
2021/12/16 05:21:07;;;;;;;39.10;35.20;;;6.30;90.10;;;;;;5032561;28;20201;-73
2021/12/16 05:26:20;;;;;;;38.78;34.78;;;6.10;91.20;;;;;;5032690;28;20197;-73
2021/12/16 05:28:51;;;;;;;41.13;36.92;;;6.10;90.90;;;;;;5032401;28;20229;-73
2021/12/16 05:31:18;;;;;;;38.08;34.55;;;6.10;91.10;;;;;;5032307;28;20197;-73
2021/12/16 05:33:45;;;;;;;38.60;34.92;;;6.30;90.70;;;;;;5031987;28;20220;-73
2021/12/16 05:36:13;;;;;;;39.60;35.60;;;6.30;90.00;;;;;;5032274;28;20279;-73
2021/12/16 05:38:40;;;;;;;38.95;35.25;;;6.30;89.90;;;;;;5032226;28;20272;-73
2021/12/16 05:41:10;;;;;;;40.08;36.28;;;6.20;90.10;;;;;;5032321;28;20197;-73
2021/12/16 05:43:38;;;;;;;37.50;34.00;;;6.20;89.90;;;;;;5031683;28;20232;-73
2021/12/16 05:46:06;;;;;;;38.17;34.65;;;6.20;90.00;;;;;;5032258;28;20688;-73
2021/12/16 05:48:37;;;;;;;39.90;35.83;;;6.30;89.80;;;;;;5031685;28;20274;-73
2021/12/16 05:51:11;;;;;;;40.63;36.72;;;6.30;90.50;;;;;;5032253;28;20207;-73
2021/12/16 05:53:42;;;;;;;40.72;36.47;;;6.20;90.20;;;;;;5032105;28;20217;-73
2021/12/16 05:56:09;;;;;;;38.03;34.38;;;6.10;90.00;;;;;;5032220;28;20203;-73
2021/12/16 05:58:37;;;;;;;37.05;33.65;;;6.10;90.20;;;;;;5032150;28;20196;-73
2021/12/16 06:01:10;;;;;;;38.03;34.53;;;6.10;90.10;;;;;;5032052;28;20202;-73
2021/12/16 06:03:37;;;;;;;39.80;35.90;;;6.00;90.50;;;;;;5031761;28;20260;-73
2021/12/16 06:06:04;;;;;;;40.53;36.40;;;6.20;90.20;;;;;;5032150;28;20201;-73
2021/12/16 06:08:32;;;;;;;39.85;36.15;;;6.10;91.60;;;;;;5032561;28;20225;-73
2021/12/16 06:11:15;;;;;;;38.83;35.10;;;6.10;92.00;;;;;;5035768;28;20201;-73
2021/12/16 06:13:48;;;;;;;38.75;35.15;;;6.10;91.60;;;;;;5035438;28;20220;-73
2021/12/16 06:27:16;;;;;;;37.28;33.80;;;6.20;91.80;;;;;;5035408;28;20247;-73
2021/12/16 06:29:47;;;;;;;36.40;32.85;;;6.30;91.00;;;;;;5035430;28;20287;-73
2021/12/16 06:32:14;;;;;;;36.97;33.47;;;6.20;90.50;;;;;;5035227;28;20536;-73
2021/12/16 06:34:42;;;;;;;35.88;32.28;;;6.20;90.50;;;;;;5035029;28;20725;-73
2021/12/16 06:37:10;;;;;;;39.03;35.53;;;6.30;90.40;;;;;;5035184;28;20197;-73
2021/12/16 06:39:37;;;;;;;36.75;33.45;;;6.20;90.40;;;;;;5035301;28;20225;-73
2021/12/16 06:42:07;;;;;;;38.22;34.55;;;6.30;90.30;;;;;;5035091;28;20251;-73
2021/12/16 06:44:41;;;;;;;36.88;33.35;;;6.30;90.00;;;;;;5034463;28;20244;-73
2021/12/16 06:47:12;;;;;;;38.75;34.95;;;6.30;90.70;;;;;;5035040;28;20283;-73
2021/12/16 06:49:43;;;;;;;35.70;32.50;;;6.30;90.40;;;;;;5034796;28;20201;-73
2021/12/16 06:52:13;;;;;;;35.50;32.30;;;6.40;90.00;;;;;;5034899;28;20197;-73
2021/12/16 06:54:54;;;;;;;36.65;33.15;;;6.30;90.10;;;;;;5034792;28;20583;-73
2021/12/16 06:57:25;;;;;;;35.88;32.50;;;6.30;89.90;;;;;;5034961;28;20283;-73
2021/12/16 07:00:02;;;;;;;284.98;55.75;;;6.40;90.30;;;;;;5034888;28;20288;-73
2021/12/16 07:02:43;;;;;;;36.75;33.30;;;6.30;93.20;;;;;;5034792;28;20240;-73
2021/12/16 07:05:12;;;;;;;38.33;34.63;;;6.30;96.90;;;;;;5034529;28;20758;-73
2021/12/16 07:07:39;;;;;;;33.97;30.88;;;6.30;94.80;;;;;;5034719;28;20217;-73
2021/12/16 07:10:09;;;;;;;36.10;32.78;;;6.30;93.50;;;;;;5034545;28;20197;-73
2021/12/16 07:12:38;;;;;;;35.53;32.25;;;6.20;92.50;;;;;;5034613;28;20197;-73
2021/12/16 07:15:10;;;;;;;36.35;32.75;;;6.30;92.40;;;;;;5034508;28;20260;-73
2021/12/16 07:17:39;;;;;;;36.15;32.85;;;6.30;92.40;;;;;;5034752;28;20236;-73
2021/12/16 07:20:08;;;;;;;36.35;32.90;;;6.30;91.80;;;;;;5033504;28;20201;-73
2021/12/16 07:22:35;;;;;;;35.42;32.28;;;6.50;91.90;;;;;;5034426;28;20223;-73
2021/12/16 07:25:03;;;;;;;37.65;33.97;;;6.50;90.70;;;;;;5034344;28;20633;-73
2021/12/16 07:27:32;;;;;;;35.67;32.42;;;6.50;90.70;;;;;;5034210;28;20258;-73
2021/12/16 07:29:59;;;;;;;36.45;33.15;;;6.50;90.50;;;;;;5034353;28;20654;-73
2021/12/16 07:32:27;;;;;;;37.58;33.88;;;6.40;90.50;;;;;;5034033;28;20674;-73
2021/12/16 07:34:54;;;;;;;53.00;34.33;;;6.50;90.50;;;;;;5034035;28;20217;-73
2021/12/16 07:37:21;;;;;;;37.63;34.17;;;6.50;91.20;;;;;;5034192;28;20203;-73
2021/12/16 07:39:50;;;;;;;39.40;35.70;;;6.50;91.50;;;;;;5034090;28;20207;-73
2021/12/16 07:42:25;;;;;;;36.60;33.40;;;6.50;91.20;;;;;;5034113;28;20241;-73
2021/12/16 07:44:52;;;;;;;36.95;33.47;;;6.60;90.50;;;;;;5033231;28;20240;-73
2021/12/16 07:47:19;;;;;;;36.95;33.55;;;6.60;89.90;;;;;;5034057;28;20224;-73
2021/12/16 07:49:47;;;;;;;38.30;34.55;;;6.60;90.00;;;;;;5033571;28;20197;-73
2021/12/16 07:52:17;;;;;;;36.83;33.25;;;6.60;90.80;;;;;;5033878;28;20280;-73
2021/12/16 07:54:45;;;;;;;40.38;36.88;;;6.50;91.80;;;;;;5033659;28;20228;-73
2021/12/16 07:57:12;;;;;;;36.35;33.05;;;6.60;91.00;;;;;;5033793;28;20212;-73
2021/12/16 07:59:39;;;;;;;38.53;35.05;;;6.60;90.40;;;;;;5033847;28;20201;-73
2021/12/16 08:02:11;;;;;;;37.63;34.17;;;6.70;90.30;;;;;;5033607;28;20199;-73
2021/12/16 08:04:42;;;;;;;36.50;33.30;;;6.60;89.90;;;;;;5033521;28;20252;-73
2021/12/16 08:07:14;;;;;;;38.38;34.65;;;6.70;89.60;;;;;;5033553;28;20197;-73
2021/12/16 08:09:42;;;;;;;41.75;38.20;;;6.70;90.20;;;;;;5033599;28;20288;-73
2021/12/16 08:12:12;;;;;;;38.58;35.10;;;6.60;89.80;;;;;;5033327;28;20197;-73
2021/12/16 08:14:39;;;;;;;37.75;34.35;;;6.60;89.70;;;;;;5033248;28;20252;-73
2021/12/16 08:17:06;;;;;;;37.80;34.13;;;6.60;89.90;;;;;;5033356;28;20197;-73
2021/12/16 08:19:33;;;;;;;37.28;33.88;;;6.60;89.80;;;;;;5033283;28;20283;-73
2021/12/16 08:22:01;;;;;;;36.00;32.70;;;6.70;89.50;;;;;;5033378;28;20201;-73
2021/12/16 08:24:29;;;;;;;36.10;32.95;;;6.70;89.50;;;;;;5033075;28;20219;-73
2021/12/16 08:26:56;;;;;;;36.65;33.72;;;6.70;89.60;;;;;;5033386;28;20207;-73
2021/12/16 08:29:24;;;;;;;35.92;32.80;;;6.80;90.20;;;;;;5033148;28;20308;-73
2021/12/16 08:31:52;;;;;;;37.15;33.95;;;6.80;90.20;;;;;;5033011;28;20228;-73
2021/12/16 08:34:18;;;;;;;35.38;32.25;;;6.90;89.70;;;;;;5032831;28;20391;-73
2021/12/16 08:36:46;;;;;;;36.83;33.65;;;7.00;88.90;;;;;;5033057;28;20224;-73
2021/12/16 08:39:13;;;;;;;36.08;32.90;;;7.00;88.10;;;;;;5033011;28;20284;-73
2021/12/16 08:41:46;;;;;;;35.63;32.60;;;6.90;88.50;;;;;;5033069;28;20289;-73
2021/12/16 08:44:13;;;;;;;35.78;32.78;;;7.00;88.10;;;;;;5032189;28;20225;-73
2021/12/16 08:46:44;;;;;;;35.42;32.17;;;6.80;88.40;;;;;;5032947;28;20209;-73
2021/12/16 08:49:11;;;;;;;34.85;31.75;;;6.90;88.30;;;;;;5032464;28;20219;-73
2021/12/16 08:51:48;;;;;;;38.97;35.47;;;6.90;88.40;;;;;;5032885;28;20567;-73
2021/12/16 08:54:16;;;;;;;34.97;31.60;;;6.90;89.00;;;;;;5032597;28;20228;-73
2021/12/16 08:56:45;;;;;;;35.95;33.00;;;6.90;89.20;;;;;;5032810;28;20196;-73
2021/12/16 08:59:13;;;;;;;33.72;30.92;;;7.00;88.80;;;;;;5032725;28;20197;-73
2021/12/16 09:01:42;;;;;;;35.05;31.92;;;7.10;88.50;;;;;;5032675;28;20540;-73
2021/12/16 09:04:10;;;;;;;37.80;34.30;;;7.00;88.40;;;;;;5032182;28;20711;-73
2021/12/16 09:06:37;;;;;;;35.00;31.90;;;7.10;89.20;;;;;;5032600;28;20204;-73
2021/12/16 09:09:06;;;;;;;35.17;31.83;;;7.20;89.60;;;;;;5032441;28;20702;-73
2021/12/16 09:11:38;;;;;;;34.33;31.58;;;7.30;89.10;;;;;;5032553;28;20235;-73
2021/12/16 09:14:07;;;;;;;34.80;31.80;;;7.40;87.80;;;;;;5032196;28;20224;-73
2021/12/16 09:16:36;;;;;;;35.10;32.22;;;7.20;87.20;;;;;;5032563;28;20649;-73
2021/12/16 09:19:06;;;;;;;35.05;31.85;;;7.20;87.70;;;;;;5032399;28;20193;-73
2021/12/16 09:21:36;;;;;;;36.42;33.03;;;7.20;89.70;;;;;;5032486;28;20554;-73
2021/12/16 09:24:06;;;;;;;33.20;30.00;;;7.30;93.50;;;;;;5032202;28;20589;-73
2021/12/16 09:26:33;;;;;;;34.42;31.35;;;7.30;90.90;;;;;;5032570;28;20247;-73
2021/12/16 09:29:00;;;;;;;33.40;30.67;;;7.30;89.90;;;;;;5032168;28;20220;-73
2021/12/16 09:31:29;;;;;;;35.75;32.60;;;7.50;89.00;;;;;;5032322;28;20194;-73
2021/12/16 09:34:02;;;;;;;36.15;32.97;;;7.60;87.30;;;;;;5032157;28;20217;-73
2021/12/16 09:36:29;;;;;;;35.90;32.75;;;7.50;86.30;;;;;;5032270;28;20208;-73
2021/12/16 09:38:57;;;;;;;33.70;31.00;;;7.50;86.90;;;;;;5032279;28;20677;-73
2021/12/16 09:41:25;;;;;;;35.63;32.67;;;7.60;87.60;;;;;;5032210;28;20198;-73
2021/12/16 09:43:54;;;;;;;36.47;33.28;;;7.70;85.50;;;;;;5032736;28;20308;-73
2021/12/16 09:46:24;;;;;;;32.40;29.80;;;7.60;85.60;;;;;;5036304;28;20200;-73
2021/12/16 09:48:54;;;;;;;36.33;33.33;;;7.50;85.30;;;;;;5035762;28;20247;-73
2021/12/16 09:51:23;;;;;;;34.60;31.73;;;7.50;85.40;;;;;;5036178;28;20207;-73
2021/12/16 09:53:51;;;;;;;34.00;31.33;;;7.50;85.30;;;;;;5035765;28;20228;-73
2021/12/16 09:56:20;;;;;;;34.30;31.50;;;7.60;84.90;;;;;;5035931;28;20666;-73
2021/12/16 09:58:49;;;;;;;34.95;31.80;;;7.70;84.70;;;;;;5035953;28;20200;-73
2021/12/16 10:01:19;;;;;;;36.15;33.15;;;7.80;84.20;;;;;;5036199;28;20197;-73
2021/12/16 10:03:48;;;;;;;34.05;31.35;;;7.80;84.40;;;;;;5035534;28;20594;-73
2021/12/16 10:06:18;;;;;;;34.13;31.25;;;7.80;84.00;;;;;;5035955;28;20201;-73
2021/12/16 10:08:46;;;;;;;34.72;31.92;;;8.00;83.80;;;;;;5035624;28;20702;-73
2021/12/16 10:11:13;;;;;;;38.05;34.65;;;8.00;83.10;;;;;;5035573;28;20288;-73
2021/12/16 10:13:46;;;;;;;37.90;34.50;;;8.00;83.90;;;;;;5035483;28;20304;-73
2021/12/16 10:19:10;;;;;;;35.92;32.67;;;7.90;83.70;;;;;;5013594;28;20386;-72
2021/12/16 10:21:41;;;;;;;35.40;32.58;;;7.90;84.00;;;;;;5030116;28;20280;-72
2021/12/16 10:24:21;;;;;;;37.80;34.58;;;7.90;84.20;;;;;;5035364;28;20252;-72
2021/12/16 10:27:06;;;;;;;38.78;35.28;;;8.00;84.40;;;;;;5035530;28;20197;-72
2021/12/16 10:29:37;;;;;;;38.03;34.58;;;8.10;83.80;;;;;;5035377;28;20334;-72
2021/12/16 10:32:05;;;;;;;36.30;33.20;;;8.20;84.50;;;;;;5035322;28;20207;-73
2021/12/16 10:34:32;;;;;;;35.15;32.28;;;8.30;85.00;;;;;;5034971;28;20224;-72
2021/12/16 10:37:01;;;;;;;36.55;33.53;;;8.30;83.90;;;;;;5035248;28;20207;-72
2021/12/16 10:39:28;;;;;;;35.70;32.80;;;8.40;82.70;;;;;;5035128;28;20203;-73
2021/12/16 10:41:57;;;;;;;35.90;32.97;;;8.40;82.40;;;;;;5035153;28;20197;-72
2021/12/16 10:44:27;;;;;;;36.40;32.90;;;8.40;82.40;;;;;;5034291;28;20304;-73
2021/12/16 10:47:00;;;;;;;38.13;34.63;;;8.40;82.60;;;;;;5035003;28;20193;-72
2021/12/16 10:49:28;;;;;;;36.60;33.58;;;8.40;82.50;;;;;;5034691;28;20225;-73
2021/12/16 10:51:59;;;;;;;35.88;32.92;;;8.20;82.70;;;;;;5034890;28;20207;-73
2021/12/16 10:54:29;;;;;;;36.10;33.00;;;8.20;83.00;;;;;;5034107;28;20217;-73
2021/12/16 10:57:00;;;;;;;34.92;31.98;;;8.30;83.20;;;;;;5034094;28;20204;-72
2021/12/16 10:59:35;;;;;;;36.00;32.97;;;8.30;82.90;;;;;;5034910;28;20663;-72
2021/12/16 11:02:20;;;;;;;36.75;33.63;;;8.40;85.40;;;;;;5034991;28;20338;-72
2021/12/16 11:04:50;;;;;;;36.28;33.22;;;8.50;85.70;;;;;;5034498;28;20594;-72
2021/12/16 11:07:22;;;;;;;35.88;32.63;;;8.30;83.00;;;;;;5034681;28;20283;-73
2021/12/16 11:10:05;;;;;;;38.83;35.30;;;8.40;83.20;;;;;;5034598;28;20225;-73
2021/12/16 11:12:44;;;;;;;35.60;32.47;;;8.30;83.10;;;;;;5034534;28;20675;-73
2021/12/16 11:15:19;;;;;;;39.33;35.67;;;8.40;83.30;;;;;;5034447;28;20221;-72
2021/12/16 11:17:49;;;;;;;36.25;32.90;;;8.40;82.80;;;;;;5034525;28;20455;-72
2021/12/16 11:20:31;;;;;;;35.75;32.72;;;8.40;82.50;;;;;;5034479;28;20198;-72
2021/12/16 11:23:01;;;;;;;35.97;32.87;;;8.30;83.50;;;;;;5034358;28;20207;-72
2021/12/16 11:25:33;;;;;;;38.20;35.00;;;8.10;83.70;;;;;;5034367;28;20517;-72
2021/12/16 11:28:13;;;;;;;38.20;34.92;;;7.90;84.50;;;;;;5034381;28;20288;-73
2021/12/16 11:30:44;;;;;;;37.35;33.55;;;7.80;84.70;;;;;;5034330;28;20197;-72
2021/12/16 11:33:18;;;;;;;37.10;33.75;;;7.80;85.20;;;;;;5033968;28;20233;-73
2021/12/16 11:35:53;;;;;;;37.80;34.50;;;7.90;84.70;;;;;;5034187;28;20283;-72
2021/12/16 11:38:29;;;;;;;37.25;34.05;;;7.90;84.60;;;;;;5034234;28;20254;-73
2021/12/16 11:41:10;;;;;;;37.25;33.97;;;8.00;84.60;;;;;;5034043;28;20197;-73
2021/12/16 11:43:48;;;;;;;35.92;32.75;;;8.00;84.80;;;;;;5033370;28;20264;-73
2021/12/16 11:46:25;;;;;;;35.88;32.75;;;8.00;84.80;;;;;;5034000;28;20197;-73
2021/12/16 11:48:55;;;;;;;36.97;33.60;;;8.20;84.70;;;;;;5033418;28;20220;-73
2021/12/16 11:51:25;;;;;;;38.63;35.13;;;8.20;84.50;;;;;;5033839;28;20288;-72
2021/12/16 11:53:59;;;;;;;37.70;34.53;;;8.20;84.50;;;;;;5033712;28;20222;-72
2021/12/16 11:56:41;;;;;;;36.72;33.53;;;8.30;85.20;;;;;;5033921;28;20197;-72
2021/12/16 11:59:09;;;;;;;36.45;33.30;;;8.30;84.40;;;;;;5033693;28;20197;-73
2021/12/16 12:01:39;;;;;;;38.70;35.10;;;8.30;84.00;;;;;;5033573;28;20732;-73
2021/12/16 12:04:08;;;;;;;37.78;34.53;;;8.30;84.20;;;;;;5033286;28;20489;-73
2021/12/16 12:06:36;;;;;;;37.78;34.60;;;8.30;84.00;;;;;;5033358;28;20538;-73
2021/12/16 12:09:06;;;;;;;38.43;34.83;;;8.60;84.00;;;;;;5033436;28;20759;-73
2021/12/16 12:11:38;;;;;;;36.63;33.40;;;8.60;85.90;;;;;;5033472;28;20462;-73
2021/12/16 12:14:09;;;;;;;36.53;33.23;;;8.60;84.60;;;;;;5033317;28;20551;-73
2021/12/16 12:16:39;;;;;;;36.90;33.83;;;8.60;83.60;;;;;;5033472;28;20456;-73
2021/12/16 12:19:13;;;;;;;36.40;33.20;;;8.70;83.80;;;;;;5033335;28;20539;-73
2021/12/16 12:21:42;;;;;;;36.23;33.03;;;8.80;84.80;;;;;;5033349;28;20450;-73
2021/12/16 12:24:13;;;;;;;37.67;34.27;;;8.90;85.70;;;;;;5032957;28;20471;-73
2021/12/16 12:26:45;;;;;;;38.30;35.17;;;9.00;83.40;;;;;;5033382;28;20539;-73
2021/12/16 12:29:16;;;;;;;39.57;36.20;;;9.00;83.90;;;;;;5033209;28;20889;-73
2021/12/16 12:31:48;;;;;;;35.80;32.70;;;9.00;82.90;;;;;;5033125;28;20460;-73
2021/12/16 12:34:15;;;;;;;38.27;34.67;;;9.10;82.30;;;;;;5032783;28;20922;-73
2021/12/16 12:36:44;;;;;;;37.43;34.23;;;9.20;81.90;;;;;;5033001;28;20456;-73
2021/12/16 12:39:15;;;;;;;39.33;35.67;;;9.20;82.20;;;;;;5033214;28;20448;-72
2021/12/16 12:41:44;;;;;;;37.67;34.17;;;9.20;83.80;;;;;;5032970;28;20452;-73
2021/12/16 12:44:11;;;;;;;38.83;35.33;;;9.30;82.60;;;;;;5032265;28;20559;-73
2021/12/16 12:46:40;;;;;;;40.30;36.73;;;9.40;83.10;;;;;;5033091;28;20475;-73
2021/12/16 12:49:11;;;;;;;40.47;37.07;;;9.40;81.50;;;;;;5032377;28;20507;-73
2021/12/16 12:51:40;;;;;;;36.10;33.20;;;9.50;80.90;;;;;;5032841;28;20878;-73
2021/12/16 12:54:21;;;;;;;36.83;33.60;;;9.60;80.50;;;;;;5032469;28;20471;-73
2021/12/16 12:56:50;;;;;;;38.53;34.97;;;9.70;80.30;;;;;;5032854;28;20816;-72
2021/12/16 12:59:18;;;;;;;37.17;33.90;;;9.90;79.80;;;;;;5032665;28;20538;-72
2021/12/16 13:01:49;;;;;;;37.80;34.80;;;9.90;79.20;;;;;;5032757;28;20459;-73
2021/12/16 13:04:20;;;;;;;39.47;35.97;;;9.90;78.70;;;;;;5032363;28;20484;-73
2021/12/16 13:06:51;;;;;;;39.60;35.83;;;9.90;78.90;;;;;;5032842;28;20458;-73
2021/12/16 13:09:28;;;;;;;36.40;33.10;;;9.90;79.20;;;;;;5032598;28;20471;-73
2021/12/16 13:11:57;;;;;;;37.77;34.53;;;9.90;78.70;;;;;;5032464;28;20550;-73
2021/12/16 13:14:42;;;;;;;37.70;34.40;;;9.70;81.20;;;;;;5032322;28;20476;-73
2021/12/16 13:28:35;;;;;;;37.83;34.33;;;9.70;78.60;;;;;;5032747;28;20427;-73
2021/12/16 13:31:07;;;;;;;37.33;34.27;;;9.70;79.10;;;;;;5032479;28;20486;-73
2021/12/16 13:33:39;;;;;;;37.97;34.83;;;9.80;79.10;;;;;;5032071;28;20474;-73
2021/12/16 13:36:15;;;;;;;39.87;35.77;;;9.70;78.60;;;;;;5032492;28;20452;-73
2021/12/16 13:38:46;;;;;;;38.93;35.40;;;9.70;78.40;;;;;;5032288;28;20925;-73
2021/12/16 13:41:15;;;;;;;38.10;34.80;;;9.80;77.90;;;;;;5032373;28;20868;-72
2021/12/16 13:43:57;;;;;;;38.70;35.50;;;9.70;78.10;;;;;;5031649;28;20471;-73
2021/12/16 13:46:37;;;;;;;39.67;36.00;;;9.50;79.20;;;;;;5032375;28;20463;-73
2021/12/16 14:03:47;;;;;;;39.30;35.60;;;9.10;81.30;;;;;;5031785;28;21110;-73
2021/12/16 14:06:19;;;;;;;38.90;35.37;;;8.90;81.20;;;;;;5032102;28;20513;-72
2021/12/16 14:08:49;;;;;;;39.13;35.80;;;9.00;81.10;;;;;;5032190;28;20456;-72
2021/12/16 14:12:10;;;;;;;37.33;34.17;;;9.00;80.50;;;;;;5032112;28;20481;-72
2021/12/16 14:14:46;;;;;;;37.93;34.10;;;8.90;80.80;;;;;;5031539;28;20888;-72
2021/12/16 14:17:56;;;;;;;37.87;34.67;;;8.80;82.10;;;;;;5032098;28;20452;-72
2021/12/16 14:23:25;;;;;;;37.67;34.07;;;8.90;82.60;;;;;;5031761;28;20475;-72
2021/12/16 14:31:59;;;;;;;43.77;40.03;;;8.90;81.50;;;;;;5035317;28;20259;-73
2021/12/16 14:37:30;;;;;;;39.20;35.40;;;8.90;81.30;;;;;;5035455;28;20448;-73
2021/12/16 14:40:07;;;;;;;36.97;33.58;;;8.90;81.30;;;;;;5035300;28;20494;-73
2021/12/16 14:42:47;;;;;;;40.85;37.45;;;8.70;81.60;;;;;;5035192;28;20201;-73
2021/12/16 14:45:28;;;;;;;38.90;35.50;;;8.70;81.80;;;;;;5034630;28;20216;-72
2021/12/16 14:50:47;;;;;;;38.53;35.20;;;8.80;81.60;;;;;;5034764;28;20475;-72
2021/12/16 14:53:23;;;;;;;35.50;32.47;;;8.80;82.70;;;;;;5034984;28;20541;-72
2021/12/16 14:55:52;;;;;;;37.58;34.38;;;8.90;82.00;;;;;;5035117;28;20535;-73
2021/12/16 14:58:21;;;;;;;37.73;34.67;;;8.80;81.90;;;;;;5034998;28;20197;-73
2021/12/16 15:00:52;;;;;;;36.83;33.83;;;8.80;81.80;;;;;;5034902;28;20566;-73
2021/12/16 15:03:21;;;;;;;37.83;34.70;;;8.80;81.70;;;;;;5034590;28;20483;-73
2021/12/16 15:05:52;;;;;;;35.83;32.95;;;8.70;81.90;;;;;;5034851;28;20198;-73
2021/12/16 15:08:26;;;;;;;36.95;33.45;;;8.70;82.70;;;;;;5034796;28;20201;-73
2021/12/16 15:10:54;;;;;;;37.37;34.10;;;8.60;83.20;;;;;;5034502;28;20228;-73
2021/12/16 15:13:27;;;;;;;35.90;33.08;;;8.60;83.20;;;;;;5034282;28;20480;-73
2021/12/16 15:16:19;;;;;;;34.97;32.17;;;8.60;83.00;;;;;;5034644;28;20354;-73
2021/12/16 15:38:19;;;;;;;36.72;33.80;;;7.90;84.90;;;;;;5034359;28;20189;-73
2021/12/16 15:40:59;;;;;;;37.65;34.17;;;7.80;85.30;;;;;;5033809;28;20251;-73
2021/12/16 15:43:32;;;;;;;37.80;34.38;;;7.80;85.60;;;;;;5033265;28;20225;-73